VIV1069 MMGL-MMMX
Flight info
| Callsign | VIV1069 |
|---|---|
| Flight time | N/A |
| Altitude | 37000 |
| Route | MMGL/29R 2033N10321W EMIRI UT119 ESPOS ESPO3A/05R |
| Aircraft | A320/M-SDE3FGHIRWY/LB1 |
Departure
| Time | N/A |
|---|---|
| Airport | Guadalajara International Airport (MMGL) |
Arrival
| Time | 2026-05-06 04:40 |
|---|---|
| Airport | Mexico City Benito Juárez International Airport (MMMX) |
| Time | Latitude | Longitude | Altitude | Speed | Heading |
|---|---|---|---|---|---|
| 2026-05-06 04:27 | 19.22076 | -99.00221 | 21599 ft | 392 kts | 27° |
| 2026-05-06 04:27 | 19.24340 | -98.98604 | 20622 ft | 387 kts | 45° |
| 2026-05-06 04:27 | 19.25993 | -98.96437 | 19695 ft | 381 kts | 61° |
| 2026-05-06 04:28 | 19.26972 | -98.93866 | 18787 ft | 375 kts | 77° |
| 2026-05-06 04:28 | 19.27213 | -98.91148 | 17804 ft | 370 kts | 93° |
| 2026-05-06 04:28 | 19.26742 | -98.88497 | 16805 ft | 365 kts | 109° |
| 2026-05-06 04:28 | 19.25605 | -98.86107 | 15836 ft | 362 kts | 124° |
| 2026-05-06 04:29 | 19.23909 | -98.84161 | 14901 ft | 359 kts | 140° |
| 2026-05-06 04:29 | 19.21791 | -98.82798 | 14138 ft | 352 kts | 156° |
| 2026-05-06 04:29 | 19.19498 | -98.82105 | 13689 ft | 337 kts | 170° |
| 2026-05-06 04:29 | 19.17236 | -98.81820 | 13448 ft | 316 kts | 174° |
| 2026-05-06 04:30 | 19.15135 | -98.81695 | 13366 ft | 294 kts | 176° |
| 2026-05-06 04:30 | 19.13153 | -98.81823 | 13163 ft | 279 kts | 193° |
| 2026-05-06 04:30 | 19.11426 | -98.82613 | 13097 ft | 268 kts | 214° |
| 2026-05-06 04:30 | 19.10083 | -98.83982 | 13028 ft | 269 kts | 235° |
| 2026-05-06 04:31 | 19.09302 | -98.85771 | 12978 ft | 270 kts | 257° |
| 2026-05-06 04:31 | 19.09185 | -98.87744 | 12919 ft | 269 kts | 278° |
| 2026-05-06 04:31 | 19.09731 | -98.89596 | 12860 ft | 268 kts | 300° |
| 2026-05-06 04:31 | 19.10842 | -98.91173 | 12803 ft | 268 kts | 312° |
| 2026-05-06 04:32 | 19.12070 | -98.92661 | 12770 ft | 268 kts | 312° |
| 2026-05-06 04:32 | 19.13288 | -98.94149 | 12740 ft | 267 kts | 312° |
| 2026-05-06 04:32 | 19.14504 | -98.95641 | 12709 ft | 267 kts | 311° |
| 2026-05-06 04:32 | 19.15715 | -98.97127 | 12676 ft | 267 kts | 311° |
| 2026-05-06 04:33 | 19.16926 | -98.98612 | 12642 ft | 266 kts | 312° |
| 2026-05-06 04:33 | 19.18136 | -99.00096 | 12610 ft | 266 kts | 311° |
| 2026-05-06 04:33 | 19.19336 | -99.01566 | 12576 ft | 266 kts | 312° |
| 2026-05-06 04:33 | 19.20547 | -99.03050 | 12548 ft | 266 kts | 311° |
| 2026-05-06 04:34 | 19.21754 | -99.04532 | 12508 ft | 265 kts | 311° |
| 2026-05-06 04:34 | 19.22943 | -99.05992 | 12470 ft | 256 kts | 311° |
| 2026-05-06 04:34 | 19.24084 | -99.07394 | 12422 ft | 246 kts | 311° |
| 2026-05-06 04:34 | 19.25158 | -99.08782 | 12256 ft | 240 kts | 309° |
| 2026-05-06 04:35 | 19.26144 | -99.10146 | 12067 ft | 233 kts | 308° |
| 2026-05-06 04:35 | 19.27115 | -99.11515 | 11853 ft | 232 kts | 307° |
| 2026-05-06 04:35 | 19.28080 | -99.12875 | 11569 ft | 230 kts | 307° |
| 2026-05-06 04:35 | 19.29044 | -99.14223 | 11272 ft | 228 kts | 307° |
| 2026-05-06 04:36 | 19.30002 | -99.15558 | 10970 ft | 227 kts | 307° |
| 2026-05-06 04:36 | 19.30953 | -99.16885 | 10661 ft | 225 kts | 307° |
| 2026-05-06 04:36 | 19.31926 | -99.18182 | 10365 ft | 224 kts | 315° |
| 2026-05-06 04:36 | 19.33180 | -99.19071 | 10109 ft | 218 kts | 338° |
| 2026-05-06 04:37 | 19.34646 | -99.19355 | 9833 ft | 213 kts | 2° |
| 2026-05-06 04:37 | 19.36052 | -99.19016 | 9642 ft | 204 kts | 25° |
| 2026-05-06 04:37 | 19.37190 | -99.18184 | 9476 ft | 197 kts | 47° |
| 2026-05-06 04:37 | 19.37961 | -99.17033 | 9367 ft | 187 kts | 59° |
| 2026-05-06 04:38 | 19.38607 | -99.15880 | 9272 ft | 176 kts | 58° |
| 2026-05-06 04:38 | 19.39015 | -99.15152 | 9189 ft | 170 kts | 58° |
| 2026-05-06 04:38 | 19.39612 | -99.14088 | 9044 ft | 164 kts | 57° |
| 2026-05-06 04:38 | 19.40362 | -99.12753 | 8741 ft | 156 kts | 58° |
| 2026-05-06 04:39 | 19.40739 | -99.12083 | 8491 ft | 156 kts | 57° |
| 2026-05-06 04:39 | 19.41282 | -99.11115 | 8150 ft | 153 kts | 57° |
| 2026-05-06 04:39 | 19.41825 | -99.10147 | 7826 ft | 153 kts | 57° |
| 2026-05-06 04:39 | 19.42365 | -99.09186 | 7585 ft | 151 kts | 57° |
| 2026-05-06 04:40 | 19.42901 | -99.08231 | 7356 ft | 150 kts | 56° |
| 2026-05-06 04:40 | 19.43397 | -99.07350 | 7303 ft | 117 kts | 60° |
| 2026-05-06 04:40 | 19.43726 | -99.06761 | 7303 ft | 67 kts | 59° |
| 2026-05-06 04:40 | 19.43879 | -99.06489 | 7303 ft | 26 kts | 59° |
| 2026-05-06 04:41 | 19.43968 | -99.06325 | 7301 ft | 26 kts | 59° |
| 2026-05-06 04:41 | 19.44059 | -99.06248 | 7303 ft | 13 kts | 31° |
| 2026-05-06 04:41 | 19.44141 | -99.06199 | 7303 ft | 14 kts | 24° |
| 2026-05-06 04:41 | 19.44239 | -99.06170 | 7303 ft | 15 kts | 5° |
| 2026-05-06 04:42 | 19.44348 | -99.06162 | 7302 ft | 11 kts | 351° |
| 2026-05-06 04:42 | 19.44394 | -99.06210 | 7303 ft | 6 kts | 299° |
| 2026-05-06 04:42 | 19.44411 | -99.06259 | 7303 ft | 8 kts | 288° |
| 2026-05-06 04:42 | 19.44418 | -99.06320 | 7303 ft | 9 kts | 252° |
| 2026-05-06 04:43 | 19.44387 | -99.06385 | 7303 ft | 11 kts | 238° |
| 2026-05-06 04:43 | 19.44345 | -99.06455 | 7303 ft | 12 kts | 238° |
| 2026-05-06 04:43 | 19.44299 | -99.06537 | 7303 ft | 14 kts | 240° |
| 2026-05-06 04:43 | 19.44248 | -99.06629 | 7303 ft | 15 kts | 240° |
| 2026-05-06 04:44 | 19.44192 | -99.06732 | 7303 ft | 17 kts | 240° |
| 2026-05-06 04:44 | 19.44130 | -99.06846 | 7303 ft | 19 kts | 240° |
| 2026-05-06 04:44 | 19.44065 | -99.06968 | 7303 ft | 20 kts | 241° |
| 2026-05-06 04:44 | 19.43987 | -99.07092 | 7303 ft | 20 kts | 239° |
| 2026-05-06 04:45 | 19.43912 | -99.07227 | 7303 ft | 22 kts | 240° |
| 2026-05-06 04:45 | 19.43850 | -99.07342 | 7303 ft | 12 kts | 237° |
| 2026-05-06 04:45 | 19.43804 | -99.07418 | 7303 ft | 13 kts | 238° |
| 2026-05-06 04:45 | 19.43753 | -99.07505 | 7303 ft | 15 kts | 240° |
| 2026-05-06 04:46 | 19.43700 | -99.07604 | 7303 ft | 16 kts | 240° |
| 2026-05-06 04:46 | 19.43640 | -99.07715 | 7303 ft | 18 kts | 240° |
| 2026-05-06 04:46 | 19.43596 | -99.07797 | 7303 ft | 11 kts | 240° |
| 2026-05-06 04:46 | 19.43554 | -99.07875 | 7303 ft | 13 kts | 240° |
| 2026-05-06 04:47 | 19.43507 | -99.07964 | 7303 ft | 15 kts | 240° |
| 2026-05-06 04:47 | 19.43454 | -99.08063 | 7303 ft | 16 kts | 240° |
| 2026-05-06 04:47 | 19.43390 | -99.08167 | 7303 ft | 18 kts | 237° |
| 2026-05-06 04:47 | 19.43321 | -99.08282 | 7303 ft | 19 kts | 238° |
| 2026-05-06 04:48 | 19.43248 | -99.08408 | 7303 ft | 21 kts | 239° |
| 2026-05-06 04:48 | 19.43187 | -99.08519 | 7303 ft | 11 kts | 240° |
| 2026-05-06 04:48 | 19.43152 | -99.08584 | 7303 ft | 5 kts | 240° |
| 2026-05-06 04:48 | 19.43132 | -99.08621 | 7303 ft | 6 kts | 240° |
| 2026-05-06 04:49 | 19.43148 | -99.08656 | 7303 ft | 7 kts | 334° |
| 2026-05-06 04:49 | 19.43176 | -99.08667 | 7303 ft | 1 kts | 340° |
| 2026-05-06 04:49 | 19.43188 | -99.08671 | 7303 ft | 3 kts | 340° |
| 2026-05-06 04:49 | 19.43200 | -99.08675 | 7303 ft | 1 kts | 345° |
| 2026-05-06 04:50 | 19.43203 | -99.08677 | 7303 ft | 0 kts | 343° |
| 2026-05-06 04:50 | 19.43206 | -99.08678 | 7303 ft | 1 kts | 343° |
| 2026-05-06 04:50 | 19.43211 | -99.08679 | 7303 ft | 0 kts | 343° |